To NAV CANADA Home Page Login to a new session Search on AWWS site Disclaimer Vers la page française équivalente Tips FAQ What's new on the site To the Forecasts and Observations / NOTAM section To "File a Flight Plan" website Publications and other links Update of the User's profile FIC Telephone Numbers My Weather Data Folder Route Weather Data Regional Weather Data Local Weather Data To the Forecasts and Observations / NOTAM section
Request Generated 10/19/2018 at 16:36:03 UTC . Weather information available at that time is displayed.

METAR/TAF

WEMINDJI/QC    

METAR CYNC 191600Z 11009G18KT 2SM -SN FEW010 SCT024 OVC034 M02/M03 A2949 RMK SF2SC2SC4 SLP988=
SPECI CYNC 191538Z 10010G17KT 2 1/2SM -SN FEW014 BKN024 OVC035 M02/M04 A2950 RMK SF2SC3SC3 SLP992=
METAR CYNC 191500Z 11009G16KT 3SM -SN FEW014 BKN025 OVC035 M02/M04 A2952 RMK SF2SC5SC1 SLP000=
SPECI CYNC 191431Z 10009G17KT 070V130 6SM -SN BKN024 OVC033 M02/M05 A2953 RMK SC5SC3 PRESFR SLP003=
METAR CYNC 191400Z 11008G18KT 10SM FEW025 BKN035 OVC075 M03/M05 A2956 RMK SC2SC5AS1 -SN SLP012=

CYNC - No TAF is issued for this station

Your time UTC time
Weather data provided by Environment Canada and NAV CANADA